sensor_id;sensor_type;location;lat;lon;timestamp;P1;durP1;ratioP1;P2;durP2;ratioP2
29824;SDS011;16713;52.916;12.834;2023-08-06T00:00:28;8.57;;;4.18;;
29824;SDS011;16713;52.916;12.834;2023-08-06T00:02:55;9.75;;;4.22;;
29824;SDS011;16713;52.916;12.834;2023-08-06T00:05:22;10.55;;;4.32;;
29824;SDS011;16713;52.916;12.834;2023-08-06T00:07:48;8.90;;;4.60;;
29824;SDS011;16713;52.916;12.834;2023-08-06T00:10:15;8.30;;;4.20;;
29824;SDS011;16713;52.916;12.834;2023-08-06T00:12:43;8.90;;;3.92;;
29824;SDS011;16713;52.916;12.834;2023-08-06T00:15:10;8.90;;;4.40;;
29824;SDS011;16713;52.916;12.834;2023-08-06T00:17:37;6.55;;;3.97;;
29824;SDS011;16713;52.916;12.834;2023-08-06T00:20:04;7.53;;;3.97;;
29824;SDS011;16713;52.916;12.834;2023-08-06T00:22:33;10.32;;;5.18;;
29824;SDS011;16713;52.916;12.834;2023-08-06T00:25:00;8.88;;;4.35;;
29824;SDS011;16713;52.916;12.834;2023-08-06T00:27:27;8.80;;;4.32;;
29824;SDS011;16713;52.916;12.834;2023-08-06T00:29:53;6.28;;;4.22;;
29824;SDS011;16713;52.916;12.834;2023-08-06T00:32:20;6.20;;;4.05;;
29824;SDS011;16713;52.916;12.834;2023-08-06T00:34:47;9.45;;;5.60;;
29824;SDS011;16713;52.916;12.834;2023-08-06T00:37:16;8.05;;;5.00;;
29824;SDS011;16713;52.916;12.834;2023-08-06T00:39:43;6.03;;;4.20;;
29824;SDS011;16713;52.916;12.834;2023-08-06T00:42:10;6.95;;;4.75;;
29824;SDS011;16713;52.916;12.834;2023-08-06T00:44:38;7.75;;;4.28;;
29824;SDS011;16713;52.916;12.834;2023-08-06T00:47:05;9.15;;;4.40;;
29824;SDS011;16713;52.916;12.834;2023-08-06T00:49:32;8.48;;;4.53;;
29824;SDS011;16713;52.916;12.834;2023-08-06T00:51:59;13.65;;;4.65;;
29824;SDS011;16713;52.916;12.834;2023-08-06T00:54:26;6.53;;;3.72;;
29824;SDS011;16713;52.916;12.834;2023-08-06T00:56:53;9.38;;;4.50;;
29824;SDS011;16713;52.916;12.834;2023-08-06T00:59:20;11.85;;;4.32;;
29824;SDS011;16713;52.916;12.834;2023-08-06T01:01:47;7.18;;;4.20;;
29824;SDS011;16713;52.916;12.834;2023-08-06T01:04:14;9.82;;;4.18;;
29824;SDS011;16713;52.916;12.834;2023-08-06T01:06:44;11.52;;;4.47;;
29824;SDS011;16713;52.916;12.834;2023-08-06T01:12:06;7.07;;;4.90;;
29824;SDS011;16713;52.916;12.834;2023-08-06T01:17:20;7.72;;;4.18;;
29824;SDS011;16713;52.916;12.834;2023-08-06T01:19:46;7.75;;;4.60;;
29824;SDS011;16713;52.916;12.834;2023-08-06T01:22:13;9.55;;;4.28;;
29824;SDS011;16713;52.916;12.834;2023-08-06T01:24:39;7.88;;;4.40;;
29824;SDS011;16713;52.916;12.834;2023-08-06T01:29:41;7.28;;;4.00;;
29824;SDS011;16713;52.916;12.834;2023-08-06T01:32:13;9.32;;;4.93;;
29824;SDS011;16713;52.916;12.834;2023-08-06T01:34:41;7.40;;;4.40;;
29824;SDS011;16713;52.916;12.834;2023-08-06T01:37:11;10.13;;;4.63;;
29824;SDS011;16713;52.916;12.834;2023-08-06T01:39:39;7.22;;;4.45;;
29824;SDS011;16713;52.916;12.834;2023-08-06T01:42:09;12.30;;;4.35;;
29824;SDS011;16713;52.916;12.834;2023-08-06T01:44:35;8.02;;;4.72;;
29824;SDS011;16713;52.916;12.834;2023-08-06T01:47:01;13.43;;;4.93;;
29824;SDS011;16713;52.916;12.834;2023-08-06T01:49:28;11.82;;;5.22;;
29824;SDS011;16713;52.916;12.834;2023-08-06T01:51:55;9.43;;;4.63;;
29824;SDS011;16713;52.916;12.834;2023-08-06T01:54:21;7.97;;;4.90;;
29824;SDS011;16713;52.916;12.834;2023-08-06T01:56:49;17.65;;;9.30;;
29824;SDS011;16713;52.916;12.834;2023-08-06T01:59:15;9.25;;;5.25;;
29824;SDS011;16713;52.916;12.834;2023-08-06T02:01:41;9.73;;;4.50;;
29824;SDS011;16713;52.916;12.834;2023-08-06T02:04:08;9.38;;;5.05;;
29824;SDS011;16713;52.916;12.834;2023-08-06T02:06:34;9.77;;;5.95;;
29824;SDS011;16713;52.916;12.834;2023-08-06T02:09:01;7.75;;;4.60;;
29824;SDS011;16713;52.916;12.834;2023-08-06T02:11:27;8.35;;;4.30;;
29824;SDS011;16713;52.916;12.834;2023-08-06T02:13:54;8.73;;;4.32;;
29824;SDS011;16713;52.916;12.834;2023-08-06T02:16:20;10.45;;;5.18;;
29824;SDS011;16713;52.916;12.834;2023-08-06T02:18:47;10.30;;;4.55;;
29824;SDS011;16713;52.916;12.834;2023-08-06T02:21:13;8.63;;;4.97;;
29824;SDS011;16713;52.916;12.834;2023-08-06T02:23:40;7.45;;;4.85;;
29824;SDS011;16713;52.916;12.834;2023-08-06T02:26:06;9.52;;;4.18;;
29824;SDS011;16713;52.916;12.834;2023-08-06T02:28:33;8.95;;;4.82;;
29824;SDS011;16713;52.916;12.834;2023-08-06T02:30:59;8.55;;;4.20;;
29824;SDS011;16713;52.916;12.834;2023-08-06T02:33:26;11.32;;;4.35;;
29824;SDS011;16713;52.916;12.834;2023-08-06T02:35:58;11.35;;;4.43;;
29824;SDS011;16713;52.916;12.834;2023-08-06T02:38:25;11.10;;;4.93;;
29824;SDS011;16713;52.916;12.834;2023-08-06T02:40:52;8.23;;;4.88;;
29824;SDS011;16713;52.916;12.834;2023-08-06T02:43:18;9.65;;;5.50;;
29824;SDS011;16713;52.916;12.834;2023-08-06T02:45:45;10.85;;;5.32;;
29824;SDS011;16713;52.916;12.834;2023-08-06T02:48:11;10.15;;;4.65;;
29824;SDS011;16713;52.916;12.834;2023-08-06T02:50:38;6.75;;;4.90;;
29824;SDS011;16713;52.916;12.834;2023-08-06T02:53:06;10.43;;;5.15;;
29824;SDS011;16713;52.916;12.834;2023-08-06T02:55:33;8.25;;;4.70;;
29824;SDS011;16713;52.916;12.834;2023-08-06T02:58:01;13.82;;;5.85;;
29824;SDS011;16713;52.916;12.834;2023-08-06T03:00:28;10.23;;;5.75;;
29824;SDS011;16713;52.916;12.834;2023-08-06T03:02:54;8.93;;;5.72;;
29824;SDS011;16713;52.916;12.834;2023-08-06T03:05:21;9.60;;;6.10;;
29824;SDS011;16713;52.916;12.834;2023-08-06T03:07:48;13.60;;;5.10;;
29824;SDS011;16713;52.916;12.834;2023-08-06T03:10:14;6.45;;;4.20;;
29824;SDS011;16713;52.916;12.834;2023-08-06T03:12:40;6.75;;;4.70;;
29824;SDS011;16713;52.916;12.834;2023-08-06T03:15:07;9.10;;;5.20;;
29824;SDS011;16713;52.916;12.834;2023-08-06T03:17:34;13.07;;;5.28;;
29824;SDS011;16713;52.916;12.834;2023-08-06T03:20:00;11.23;;;5.03;;
29824;SDS011;16713;52.916;12.834;2023-08-06T03:22:27;10.38;;;4.78;;
29824;SDS011;16713;52.916;12.834;2023-08-06T03:24:53;6.63;;;4.97;;
29824;SDS011;16713;52.916;12.834;2023-08-06T03:27:20;7.28;;;4.97;;
29824;SDS011;16713;52.916;12.834;2023-08-06T03:29:48;9.98;;;5.15;;
29824;SDS011;16713;52.916;12.834;2023-08-06T03:32:16;10.30;;;5.47;;
29824;SDS011;16713;52.916;12.834;2023-08-06T03:34:42;7.03;;;5.05;;
29824;SDS011;16713;52.916;12.834;2023-08-06T03:37:09;7.60;;;4.65;;
29824;SDS011;16713;52.916;12.834;2023-08-06T03:39:35;6.70;;;4.80;;
29824;SDS011;16713;52.916;12.834;2023-08-06T03:42:02;7.38;;;5.07;;
29824;SDS011;16713;52.916;12.834;2023-08-06T03:44:28;6.57;;;4.78;;
29824;SDS011;16713;52.916;12.834;2023-08-06T03:46:55;6.45;;;5.07;;
29824;SDS011;16713;52.916;12.834;2023-08-06T03:49:21;8.27;;;5.38;;
29824;SDS011;16713;52.916;12.834;2023-08-06T03:51:48;9.57;;;5.72;;
29824;SDS011;16713;52.916;12.834;2023-08-06T03:54:14;9.25;;;4.93;;
29824;SDS011;16713;52.916;12.834;2023-08-06T03:56:41;8.85;;;4.78;;
29824;SDS011;16713;52.916;12.834;2023-08-06T03:59:07;9.85;;;5.05;;
29824;SDS011;16713;52.916;12.834;2023-08-06T04:01:34;10.20;;;5.30;;
29824;SDS011;16713;52.916;12.834;2023-08-06T04:04:00;11.23;;;5.32;;
29824;SDS011;16713;52.916;12.834;2023-08-06T04:06:26;9.57;;;5.63;;
29824;SDS011;16713;52.916;12.834;2023-08-06T04:08:53;11.98;;;5.50;;
29824;SDS011;16713;52.916;12.834;2023-08-06T04:11:19;10.27;;;5.95;;
29824;SDS011;16713;52.916;12.834;2023-08-06T04:13:46;10.45;;;5.57;;
29824;SDS011;16713;52.916;12.834;2023-08-06T04:16:12;10.23;;;5.72;;
29824;SDS011;16713;52.916;12.834;2023-08-06T04:18:41;9.88;;;6.00;;
29824;SDS011;16713;52.916;12.834;2023-08-06T04:21:07;12.02;;;6.13;;
29824;SDS011;16713;52.916;12.834;2023-08-06T04:23:34;8.65;;;5.07;;
29824;SDS011;16713;52.916;12.834;2023-08-06T04:26:00;8.88;;;5.85;;
29824;SDS011;16713;52.916;12.834;2023-08-06T04:28:27;11.00;;;6.05;;
29824;SDS011;16713;52.916;12.834;2023-08-06T04:30:53;10.40;;;5.90;;
29824;SDS011;16713;52.916;12.834;2023-08-06T04:33:20;8.43;;;5.97;;
29824;SDS011;16713;52.916;12.834;2023-08-06T04:35:47;9.10;;;5.25;;
29824;SDS011;16713;52.916;12.834;2023-08-06T04:38:13;7.55;;;5.45;;
29824;SDS011;16713;52.916;12.834;2023-08-06T04:40:40;12.73;;;5.82;;
29824;SDS011;16713;52.916;12.834;2023-08-06T04:43:07;6.72;;;5.60;;
29824;SDS011;16713;52.916;12.834;2023-08-06T04:45:33;8.07;;;5.53;;
29824;SDS011;16713;52.916;12.834;2023-08-06T04:47:59;7.88;;;5.38;;
29824;SDS011;16713;52.916;12.834;2023-08-06T04:50:26;8.85;;;5.35;;
29824;SDS011;16713;52.916;12.834;2023-08-06T04:52:52;8.38;;;5.72;;
29824;SDS011;16713;52.916;12.834;2023-08-06T04:55:19;8.48;;;5.35;;
29824;SDS011;16713;52.916;12.834;2023-08-06T04:57:45;10.27;;;6.65;;
29824;SDS011;16713;52.916;12.834;2023-08-06T05:00:12;12.27;;;5.95;;
29824;SDS011;16713;52.916;12.834;2023-08-06T05:02:40;11.45;;;5.85;;
29824;SDS011;16713;52.916;12.834;2023-08-06T05:05:07;9.63;;;5.80;;
29824;SDS011;16713;52.916;12.834;2023-08-06T05:07:34;10.10;;;5.47;;
29824;SDS011;16713;52.916;12.834;2023-08-06T05:10:00;8.45;;;5.68;;
29824;SDS011;16713;52.916;12.834;2023-08-06T05:12:27;7.78;;;5.80;;
29824;SDS011;16713;52.916;12.834;2023-08-06T05:14:53;9.35;;;6.50;;
29824;SDS011;16713;52.916;12.834;2023-08-06T05:17:20;8.20;;;6.00;;
29824;SDS011;16713;52.916;12.834;2023-08-06T05:19:46;9.25;;;5.63;;
29824;SDS011;16713;52.916;12.834;2023-08-06T05:22:13;11.30;;;6.57;;
29824;SDS011;16713;52.916;12.834;2023-08-06T05:24:39;9.00;;;6.30;;
29824;SDS011;16713;52.916;12.834;2023-08-06T05:27:06;10.55;;;6.28;;
29824;SDS011;16713;52.916;12.834;2023-08-06T05:29:32;9.73;;;5.50;;
29824;SDS011;16713;52.916;12.834;2023-08-06T05:31:59;10.50;;;5.72;;
29824;SDS011;16713;52.916;12.834;2023-08-06T05:34:25;9.77;;;6.10;;
29824;SDS011;16713;52.916;12.834;2023-08-06T05:36:51;9.32;;;6.40;;
29824;SDS011;16713;52.916;12.834;2023-08-06T05:39:19;10.55;;;6.13;;
29824;SDS011;16713;52.916;12.834;2023-08-06T05:41:45;9.25;;;6.28;;
29824;SDS011;16713;52.916;12.834;2023-08-06T05:44:11;15.35;;;7.97;;
29824;SDS011;16713;52.916;12.834;2023-08-06T05:46:38;9.55;;;6.45;;
29824;SDS011;16713;52.916;12.834;2023-08-06T05:49:04;13.95;;;6.60;;
29824;SDS011;16713;52.916;12.834;2023-08-06T05:51:31;10.80;;;6.60;;
29824;SDS011;16713;52.916;12.834;2023-08-06T05:53:57;10.90;;;7.05;;
29824;SDS011;16713;52.916;12.834;2023-08-06T05:56:24;8.90;;;7.22;;
29824;SDS011;16713;52.916;12.834;2023-08-06T05:58:50;13.23;;;7.60;;
29824;SDS011;16713;52.916;12.834;2023-08-06T06:01:19;12.00;;;7.90;;
29824;SDS011;16713;52.916;12.834;2023-08-06T06:03:45;8.60;;;7.10;;
29824;SDS011;16713;52.916;12.834;2023-08-06T06:06:12;11.30;;;6.60;;
29824;SDS011;16713;52.916;12.834;2023-08-06T06:08:42;8.60;;;7.22;;
29824;SDS011;16713;52.916;12.834;2023-08-06T06:11:08;9.63;;;7.18;;
29824;SDS011;16713;52.916;12.834;2023-08-06T06:13:35;8.60;;;6.78;;
29824;SDS011;16713;52.916;12.834;2023-08-06T06:16:01;9.98;;;7.32;;
29824;SDS011;16713;52.916;12.834;2023-08-06T06:18:28;11.55;;;7.68;;
29824;SDS011;16713;52.916;12.834;2023-08-06T06:20:54;8.95;;;7.03;;
29824;SDS011;16713;52.916;12.834;2023-08-06T06:23:21;9.57;;;7.25;;
29824;SDS011;16713;52.916;12.834;2023-08-06T06:25:50;9.80;;;7.68;;
29824;SDS011;16713;52.916;12.834;2023-08-06T06:28:18;9.32;;;7.75;;
29824;SDS011;16713;52.916;12.834;2023-08-06T06:30:44;9.70;;;7.82;;
29824;SDS011;16713;52.916;12.834;2023-08-06T06:33:11;12.05;;;7.53;;
29824;SDS011;16713;52.916;12.834;2023-08-06T06:35:37;13.32;;;8.90;;
29824;SDS011;16713;52.916;12.834;2023-08-06T06:38:04;12.35;;;8.52;;
29824;SDS011;16713;52.916;12.834;2023-08-06T06:40:31;12.07;;;7.45;;
29824;SDS011;16713;52.916;12.834;2023-08-06T06:42:59;9.52;;;6.90;;
29824;SDS011;16713;52.916;12.834;2023-08-06T06:45:25;12.13;;;7.97;;
29824;SDS011;16713;52.916;12.834;2023-08-06T06:47:52;13.10;;;9.15;;
29824;SDS011;16713;52.916;12.834;2023-08-06T06:50:18;10.48;;;7.82;;
29824;SDS011;16713;52.916;12.834;2023-08-06T06:52:45;10.75;;;6.88;;
29824;SDS011;16713;52.916;12.834;2023-08-06T06:55:11;10.88;;;7.78;;
29824;SDS011;16713;52.916;12.834;2023-08-06T06:57:37;9.82;;;7.47;;
29824;SDS011;16713;52.916;12.834;2023-08-06T07:00:04;11.10;;;8.20;;
29824;SDS011;16713;52.916;12.834;2023-08-06T07:02:32;13.90;;;9.10;;
29824;SDS011;16713;52.916;12.834;2023-08-06T07:04:58;9.77;;;7.57;;
29824;SDS011;16713;52.916;12.834;2023-08-06T07:07:25;13.73;;;9.60;;
29824;SDS011;16713;52.916;12.834;2023-08-06T07:09:51;12.23;;;9.30;;
29824;SDS011;16713;52.916;12.834;2023-08-06T07:12:18;10.85;;;7.78;;
29824;SDS011;16713;52.916;12.834;2023-08-06T07:14:44;14.63;;;9.82;;
29824;SDS011;16713;52.916;12.834;2023-08-06T07:17:10;12.82;;;9.90;;
29824;SDS011;16713;52.916;12.834;2023-08-06T07:19:37;10.45;;;8.32;;
29824;SDS011;16713;52.916;12.834;2023-08-06T07:22:04;11.88;;;9.20;;
29824;SDS011;16713;52.916;12.834;2023-08-06T07:24:30;10.05;;;9.05;;
29824;SDS011;16713;52.916;12.834;2023-08-06T07:26:57;10.93;;;9.82;;
29824;SDS011;16713;52.916;12.834;2023-08-06T07:29:23;13.77;;;9.80;;
29824;SDS011;16713;52.916;12.834;2023-08-06T07:31:50;12.70;;;9.95;;
29824;SDS011;16713;52.916;12.834;2023-08-06T07:34:17;12.43;;;9.82;;
29824;SDS011;16713;52.916;12.834;2023-08-06T07:36:46;12.40;;;9.70;;
29824;SDS011;16713;52.916;12.834;2023-08-06T07:39:13;11.00;;;9.82;;
29824;SDS011;16713;52.916;12.834;2023-08-06T07:41:39;14.50;;;10.85;;
29824;SDS011;16713;52.916;12.834;2023-08-06T07:44:07;18.70;;;9.57;;
29824;SDS011;16713;52.916;12.834;2023-08-06T07:46:34;18.02;;;11.32;;
29824;SDS011;16713;52.916;12.834;2023-08-06T07:49:00;11.07;;;9.80;;
29824;SDS011;16713;52.916;12.834;2023-08-06T07:51:26;13.48;;;10.57;;
29824;SDS011;16713;52.916;12.834;2023-08-06T07:53:53;12.77;;;10.95;;
29824;SDS011;16713;52.916;12.834;2023-08-06T07:56:19;16.92;;;11.88;;
29824;SDS011;16713;52.916;12.834;2023-08-06T07:58:46;14.73;;;11.25;;
29824;SDS011;16713;52.916;12.834;2023-08-06T08:01:12;13.52;;;11.32;;
29824;SDS011;16713;52.916;12.834;2023-08-06T08:03:39;15.32;;;12.85;;
29824;SDS011;16713;52.916;12.834;2023-08-06T08:06:05;13.05;;;11.32;;
29824;SDS011;16713;52.916;12.834;2023-08-06T08:08:32;14.88;;;11.45;;
29824;SDS011;16713;52.916;12.834;2023-08-06T08:10:58;14.07;;;12.15;;
29824;SDS011;16713;52.916;12.834;2023-08-06T08:13:26;13.07;;;11.65;;
29824;SDS011;16713;52.916;12.834;2023-08-06T08:15:56;14.20;;;11.13;;
29824;SDS011;16713;52.916;12.834;2023-08-06T08:18:24;15.52;;;12.13;;
29824;SDS011;16713;52.916;12.834;2023-08-06T08:20:51;15.73;;;12.43;;
29824;SDS011;16713;52.916;12.834;2023-08-06T08:23:17;16.40;;;13.85;;
29824;SDS011;16713;52.916;12.834;2023-08-06T08:25:44;15.65;;;13.63;;
29824;SDS011;16713;52.916;12.834;2023-08-06T08:28:10;14.82;;;12.85;;
29824;SDS011;16713;52.916;12.834;2023-08-06T08:30:37;16.50;;;12.98;;
29824;SDS011;16713;52.916;12.834;2023-08-06T08:33:03;14.88;;;12.77;;
29824;SDS011;16713;52.916;12.834;2023-08-06T08:35:30;18.20;;;13.05;;
29824;SDS011;16713;52.916;12.834;2023-08-06T08:37:56;13.02;;;11.45;;
29824;SDS011;16713;52.916;12.834;2023-08-06T08:40:23;16.40;;;11.70;;
29824;SDS011;16713;52.916;12.834;2023-08-06T08:42:59;17.33;;;11.35;;
29824;SDS011;16713;52.916;12.834;2023-08-06T08:45:26;17.35;;;11.70;;
29824;SDS011;16713;52.916;12.834;2023-08-06T08:47:55;13.27;;;11.18;;
29824;SDS011;16713;52.916;12.834;2023-08-06T08:50:22;12.38;;;11.02;;
29824;SDS011;16713;52.916;12.834;2023-08-06T08:52:48;12.13;;;10.88;;
29824;SDS011;16713;52.916;12.834;2023-08-06T08:55:16;12.07;;;10.75;;
29824;SDS011;16713;52.916;12.834;2023-08-06T08:57:44;13.88;;;11.98;;
29824;SDS011;16713;52.916;12.834;2023-08-06T09:00:10;13.57;;;11.38;;
29824;SDS011;16713;52.916;12.834;2023-08-06T09:02:37;12.70;;;11.23;;
29824;SDS011;16713;52.916;12.834;2023-08-06T09:05:05;14.25;;;11.05;;
29824;SDS011;16713;52.916;12.834;2023-08-06T09:07:38;12.10;;;10.82;;
29824;SDS011;16713;52.916;12.834;2023-08-06T09:10:10;14.65;;;12.35;;
29824;SDS011;16713;52.916;12.834;2023-08-06T09:12:37;15.32;;;12.05;;
29824;SDS011;16713;52.916;12.834;2023-08-06T09:15:04;16.40;;;13.57;;
29824;SDS011;16713;52.916;12.834;2023-08-06T09:17:31;17.65;;;12.13;;
29824;SDS011;16713;52.916;12.834;2023-08-06T09:19:58;17.33;;;13.43;;
29824;SDS011;16713;52.916;12.834;2023-08-06T09:22:25;14.32;;;12.43;;
29824;SDS011;16713;52.916;12.834;2023-08-06T09:25:00;16.65;;;13.90;;
29824;SDS011;16713;52.916;12.834;2023-08-06T09:27:26;15.38;;;12.70;;
29824;SDS011;16713;52.916;12.834;2023-08-06T09:29:53;15.88;;;12.32;;
29824;SDS011;16713;52.916;12.834;2023-08-06T09:32:19;16.85;;;11.63;;
29824;SDS011;16713;52.916;12.834;2023-08-06T09:34:46;15.07;;;12.38;;
29824;SDS011;16713;52.916;12.834;2023-08-06T09:37:12;13.10;;;11.73;;
29824;SDS011;16713;52.916;12.834;2023-08-06T09:39:39;16.58;;;12.07;;
29824;SDS011;16713;52.916;12.834;2023-08-06T09:42:09;13.95;;;12.43;;
29824;SDS011;16713;52.916;12.834;2023-08-06T09:44:35;15.23;;;12.43;;
29824;SDS011;16713;52.916;12.834;2023-08-06T09:47:02;14.25;;;12.40;;
29824;SDS011;16713;52.916;12.834;2023-08-06T09:51:59;15.68;;;12.20;;
29824;SDS011;16713;52.916;12.834;2023-08-06T09:54:26;16.80;;;12.07;;
29824;SDS011;16713;52.916;12.834;2023-08-06T09:56:54;14.00;;;11.43;;
29824;SDS011;16713;52.916;12.834;2023-08-06T09:59:24;14.20;;;12.75;;
29824;SDS011;16713;52.916;12.834;2023-08-06T10:01:52;14.05;;;11.88;;
29824;SDS011;16713;52.916;12.834;2023-08-06T10:04:20;13.45;;;11.43;;
29824;SDS011;16713;52.916;12.834;2023-08-06T10:06:51;14.77;;;12.53;;
29824;SDS011;16713;52.916;12.834;2023-08-06T10:09:19;15.63;;;13.30;;
29824;SDS011;16713;52.916;12.834;2023-08-06T10:11:52;13.32;;;11.93;;
29824;SDS011;16713;52.916;12.834;2023-08-06T10:14:27;17.95;;;12.15;;
29824;SDS011;16713;52.916;12.834;2023-08-06T10:16:57;15.70;;;12.18;;
29824;SDS011;16713;52.916;12.834;2023-08-06T10:19:24;16.02;;;11.82;;
29824;SDS011;16713;52.916;12.834;2023-08-06T10:22:12;13.70;;;12.35;;
29824;SDS011;16713;52.916;12.834;2023-08-06T10:27:22;12.88;;;11.60;;
29824;SDS011;16713;52.916;12.834;2023-08-06T10:29:54;14.57;;;11.25;;
29824;SDS011;16713;52.916;12.834;2023-08-06T10:32:38;17.27;;;12.50;;
29824;SDS011;16713;52.916;12.834;2023-08-06T10:38:18;12.93;;;11.25;;
29824;SDS011;16713;52.916;12.834;2023-08-06T10:43:31;12.23;;;10.30;;
29824;SDS011;16713;52.916;12.834;2023-08-06T10:46:04;12.68;;;10.93;;
29824;SDS011;16713;52.916;12.834;2023-08-06T10:51:10;11.50;;;9.93;;
29824;SDS011;16713;52.916;12.834;2023-08-06T10:53:44;11.43;;;9.77;;
29824;SDS011;16713;52.916;12.834;2023-08-06T10:58:43;14.48;;;9.95;;
29824;SDS011;16713;52.916;12.834;2023-08-06T11:01:10;15.75;;;10.07;;
29824;SDS011;16713;52.916;12.834;2023-08-06T11:03:37;15.75;;;11.52;;
29824;SDS011;16713;52.916;12.834;2023-08-06T11:06:06;12.30;;;10.98;;
29824;SDS011;16713;52.916;12.834;2023-08-06T11:08:34;12.95;;;11.07;;
29824;SDS011;16713;52.916;12.834;2023-08-06T11:11:11;10.13;;;9.05;;
29824;SDS011;16713;52.916;12.834;2023-08-06T11:13:43;10.95;;;9.85;;
29824;SDS011;16713;52.916;12.834;2023-08-06T11:16:16;12.23;;;8.95;;
29824;SDS011;16713;52.916;12.834;2023-08-06T11:18:45;10.75;;;8.55;;
29824;SDS011;16713;52.916;12.834;2023-08-06T11:21:11;9.20;;;7.90;;
29824;SDS011;16713;52.916;12.834;2023-08-06T11:23:38;12.15;;;9.23;;
29824;SDS011;16713;52.916;12.834;2023-08-06T11:26:05;9.40;;;8.40;;
29824;SDS011;16713;52.916;12.834;2023-08-06T11:28:31;11.25;;;8.40;;
29824;SDS011;16713;52.916;12.834;2023-08-06T11:30:58;10.57;;;8.05;;
29824;SDS011;16713;52.916;12.834;2023-08-06T11:33:28;11.25;;;8.30;;
29824;SDS011;16713;52.916;12.834;2023-08-06T11:35:55;12.13;;;7.55;;
29824;SDS011;16713;52.916;12.834;2023-08-06T11:38:24;9.50;;;6.43;;
29824;SDS011;16713;52.916;12.834;2023-08-06T11:40:52;9.57;;;7.20;;
29824;SDS011;16713;52.916;12.834;2023-08-06T11:43:19;9.07;;;7.32;;
29824;SDS011;16713;52.916;12.834;2023-08-06T11:45:48;8.82;;;6.97;;
29824;SDS011;16713;52.916;12.834;2023-08-06T11:48:16;11.65;;;7.28;;
29824;SDS011;16713;52.916;12.834;2023-08-06T11:50:44;8.85;;;7.95;;
29824;SDS011;16713;52.916;12.834;2023-08-06T11:53:12;10.10;;;6.95;;
29824;SDS011;16713;52.916;12.834;2023-08-06T11:55:40;7.50;;;6.13;;
29824;SDS011;16713;52.916;12.834;2023-08-06T11:58:08;10.75;;;7.28;;
29824;SDS011;16713;52.916;12.834;2023-08-06T12:00:36;12.10;;;7.53;;
29824;SDS011;16713;52.916;12.834;2023-08-06T12:03:04;12.25;;;6.68;;
29824;SDS011;16713;52.916;12.834;2023-08-06T12:05:31;9.38;;;6.25;;
29824;SDS011;16713;52.916;12.834;2023-08-06T12:08:00;8.68;;;6.43;;
29824;SDS011;16713;52.916;12.834;2023-08-06T12:10:28;10.73;;;7.03;;
29824;SDS011;16713;52.916;12.834;2023-08-06T12:12:56;11.65;;;6.35;;
29824;SDS011;16713;52.916;12.834;2023-08-06T12:15:23;8.13;;;6.35;;
29824;SDS011;16713;52.916;12.834;2023-08-06T12:17:50;11.25;;;5.60;;
29824;SDS011;16713;52.916;12.834;2023-08-06T12:20:16;6.50;;;5.32;;
29824;SDS011;16713;52.916;12.834;2023-08-06T12:22:43;9.40;;;5.85;;
29824;SDS011;16713;52.916;12.834;2023-08-06T12:25:10;7.57;;;5.38;;
29824;SDS011;16713;52.916;12.834;2023-08-06T12:27:39;7.75;;;5.43;;
29824;SDS011;16713;52.916;12.834;2023-08-06T12:30:10;8.95;;;5.32;;
29824;SDS011;16713;52.916;12.834;2023-08-06T12:32:37;6.47;;;5.85;;
29824;SDS011;16713;52.916;12.834;2023-08-06T12:35:04;12.57;;;6.13;;
29824;SDS011;16713;52.916;12.834;2023-08-06T12:37:33;6.82;;;5.70;;
29824;SDS011;16713;52.916;12.834;2023-08-06T12:40:00;8.77;;;6.13;;
29824;SDS011;16713;52.916;12.834;2023-08-06T12:42:47;7.80;;;5.28;;
29824;SDS011;16713;52.916;12.834;2023-08-06T12:45:13;6.32;;;5.07;;
29824;SDS011;16713;52.916;12.834;2023-08-06T12:47:40;6.47;;;4.90;;
29824;SDS011;16713;52.916;12.834;2023-08-06T12:50:07;6.63;;;5.70;;
29824;SDS011;16713;52.916;12.834;2023-08-06T12:52:34;12.55;;;5.80;;
29824;SDS011;16713;52.916;12.834;2023-08-06T12:55:01;9.02;;;4.10;;
29824;SDS011;16713;52.916;12.834;2023-08-06T12:57:27;6.22;;;4.00;;
29824;SDS011;16713;52.916;12.834;2023-08-06T13:00:12;4.57;;;4.00;;
29824;SDS011;16713;52.916;12.834;2023-08-06T13:02:39;6.85;;;3.92;;
29824;SDS011;16713;52.916;12.834;2023-08-06T13:05:06;8.32;;;4.65;;
29824;SDS011;16713;52.916;12.834;2023-08-06T13:07:33;9.27;;;4.95;;
29824;SDS011;16713;52.916;12.834;2023-08-06T13:09:59;5.65;;;3.60;;
29824;SDS011;16713;52.916;12.834;2023-08-06T13:12:26;6.22;;;4.25;;
29824;SDS011;16713;52.916;12.834;2023-08-06T13:14:52;5.22;;;4.53;;
29824;SDS011;16713;52.916;12.834;2023-08-06T13:17:19;9.15;;;3.95;;
29824;SDS011;16713;52.916;12.834;2023-08-06T13:19:45;4.68;;;3.75;;
29824;SDS011;16713;52.916;12.834;2023-08-06T13:22:12;9.48;;;4.50;;
29824;SDS011;16713;52.916;12.834;2023-08-06T13:24:38;6.80;;;4.20;;
29824;SDS011;16713;52.916;12.834;2023-08-06T13:27:05;5.05;;;4.28;;
29824;SDS011;16713;52.916;12.834;2023-08-06T13:29:32;5.47;;;4.07;;
29824;SDS011;16713;52.916;12.834;2023-08-06T13:31:59;5.20;;;3.90;;
29824;SDS011;16713;52.916;12.834;2023-08-06T13:34:25;4.25;;;3.75;;
29824;SDS011;16713;52.916;12.834;2023-08-06T13:36:52;4.10;;;3.65;;
29824;SDS011;16713;52.916;12.834;2023-08-06T13:39:19;7.80;;;3.90;;
29824;SDS011;16713;52.916;12.834;2023-08-06T13:41:46;6.07;;;4.05;;
29824;SDS011;16713;52.916;12.834;2023-08-06T13:44:12;5.07;;;3.65;;
29824;SDS011;16713;52.916;12.834;2023-08-06T13:46:40;3.72;;;3.28;;
29824;SDS011;16713;52.916;12.834;2023-08-06T13:49:07;5.78;;;3.78;;
29824;SDS011;16713;52.916;12.834;2023-08-06T13:51:34;5.55;;;3.65;;
29824;SDS011;16713;52.916;12.834;2023-08-06T13:54:02;4.57;;;3.10;;
29824;SDS011;16713;52.916;12.834;2023-08-06T13:56:28;8.93;;;4.18;;
29824;SDS011;16713;52.916;12.834;2023-08-06T13:58:58;7.18;;;4.20;;
29824;SDS011;16713;52.916;12.834;2023-08-06T14:01:25;11.45;;;7.30;;
29824;SDS011;16713;52.916;12.834;2023-08-06T14:04:08;9.27;;;5.68;;
29824;SDS011;16713;52.916;12.834;2023-08-06T14:06:36;4.75;;;4.03;;
29824;SDS011;16713;52.916;12.834;2023-08-06T14:09:02;6.97;;;4.60;;
29824;SDS011;16713;52.916;12.834;2023-08-06T14:11:29;5.30;;;3.92;;
29824;SDS011;16713;52.916;12.834;2023-08-06T14:13:56;5.25;;;3.80;;
29824;SDS011;16713;52.916;12.834;2023-08-06T14:16:22;5.28;;;3.72;;
29824;SDS011;16713;52.916;12.834;2023-08-06T14:18:49;9.52;;;4.07;;
29824;SDS011;16713;52.916;12.834;2023-08-06T14:21:15;7.35;;;5.45;;
29824;SDS011;16713;52.916;12.834;2023-08-06T14:23:41;10.75;;;5.15;;
29824;SDS011;16713;52.916;12.834;2023-08-06T14:26:08;6.97;;;4.28;;
29824;SDS011;16713;52.916;12.834;2023-08-06T14:28:36;7.07;;;4.85;;
29824;SDS011;16713;52.916;12.834;2023-08-06T14:31:03;9.60;;;7.05;;
29824;SDS011;16713;52.916;12.834;2023-08-06T14:33:29;13.63;;;6.95;;
29824;SDS011;16713;52.916;12.834;2023-08-06T14:35:56;9.48;;;5.93;;
29824;SDS011;16713;52.916;12.834;2023-08-06T14:38:22;10.02;;;7.43;;
29824;SDS011;16713;52.916;12.834;2023-08-06T14:40:49;11.43;;;6.43;;
29824;SDS011;16713;52.916;12.834;2023-08-06T14:43:16;9.20;;;5.53;;
29824;SDS011;16713;52.916;12.834;2023-08-06T14:45:42;8.40;;;4.53;;
29824;SDS011;16713;52.916;12.834;2023-08-06T14:48:09;11.48;;;4.65;;
29824;SDS011;16713;52.916;12.834;2023-08-06T14:50:35;11.18;;;4.57;;